Time;durP1;ratioP1;P1;durP2;ratioP2;P2;SDS_P1;SDS_P2;PMS_P1;PMS_P2;Temp;Humidity;BMP_temperature;BMP_pressure;BME280_temperature;BME280_humidity;BME280_pressure;Samples;Min_cycle;Max_cycle;Signal;HPM_P1;HPM_P2
2022/08/24 00:01:33;;;;;;;4.28;1.90;;;;;;;18.11;64.35;98834.25;5011875;28;20025;-68
2022/08/24 00:03:59;;;;;;;4.03;2.00;;;;;;;18.08;65.18;98832.03;5009827;28;20026;-68
2022/08/24 00:06:26;;;;;;;6.57;2.15;;;;;;;17.99;66.04;98841.72;5010409;28;20026;-68
2022/08/24 00:08:53;;;;;;;4.07;2.20;;;;;;;17.83;67.36;98833.28;5005119;28;20498;-68
2022/08/24 00:11:19;;;;;;;4.32;2.03;;;;;;;17.86;67.35;98842.91;5009011;28;20033;-68
2022/08/24 00:13:45;;;;;;;2.95;2.15;;;;;;;17.82;67.24;98842.56;5007172;28;20044;-67
2022/08/24 00:16:11;;;;;;;5.80;2.00;;;;;;;17.80;68.26;98844.72;5007386;28;20479;-68
2022/08/24 00:18:38;;;;;;;5.32;2.13;;;;;;;17.94;67.32;98842.47;5004083;28;20511;-68
2022/08/24 00:21:04;;;;;;;3.65;2.30;;;;;;;17.62;67.26;98799.25;5010956;28;20061;-68
2022/08/24 00:23:29;;;;;;;4.30;1.83;;;;;;;17.70;68.21;98842.63;5008469;28;20065;-67
2022/08/24 00:25:56;;;;;;;4.45;2.22;;;;;;;17.57;69.03;98833.91;4990147;28;20455;-68
2022/08/24 00:28:22;;;;;;;3.55;2.03;;;;;;;17.50;69.55;98837.66;4998086;28;20034;-68
2022/08/24 00:30:47;;;;;;;2.95;2.10;;;;;;;17.63;69.65;98838.38;5008630;28;20025;-68
2022/08/24 00:33:12;;;;;;;3.63;2.13;;;;;;;17.44;69.82;98822.22;5005347;28;20026;-69
2022/08/24 00:35:38;;;;;;;5.18;2.20;;;;;;;17.60;69.99;98833.41;5010924;28;20390;-69
2022/08/24 00:38:04;;;;;;;2.28;2.08;;;;;;;17.58;69.97;98819.16;4999817;28;20043;-69
2022/08/24 00:40:32;;;;;;;4.20;1.90;;;;;;;17.64;69.64;98843.63;5007518;28;20715;-69
2022/08/24 00:43:02;;;;;;;4.25;2.08;;;;;;;17.47;70.11;98835.38;5009625;28;20506;-67
2022/08/24 00:45:27;;;;;;;;;;;;;;;17.35;70.28;98837.38;5006049;28;20348;-68
2022/08/24 00:47:58;;;;;;;5.47;2.47;;;;;;;17.20;70.95;98831.63;5003893;28;19949;-69
2022/08/24 00:50:48;;;;;;;4.60;2.20;;;;;;;17.07;70.99;98844.53;5003596;28;20049;-68
2022/08/24 00:53:24;;;;;;;2.45;1.90;;;;;;;17.00;71.38;98832.09;5005958;28;20400;-68
2022/08/24 00:55:55;;;;;;;5.93;2.35;;;;;;;16.97;71.51;98838.03;5005426;28;20108;-68
2022/08/24 00:58:27;;;;;;;6.22;2.63;;;;;;;16.88;72.27;98836.78;5005648;28;20488;-68
2022/08/24 01:01:01;;;;;;;5.45;2.33;;;;;;;16.80;72.89;98836.09;5001051;28;20115;-68
2022/08/24 01:03:27;;;;;;;6.10;2.47;;;;;;;16.62;72.69;98807.00;5006375;28;20076;-68
2022/08/24 01:05:53;;;;;;;5.10;2.40;;;;;;;16.79;73.17;98839.06;5008868;28;20033;-68
2022/08/24 01:08:20;;;;;;;3.25;2.13;;;;;;;16.70;73.25;98833.13;5005229;28;20026;-68
2022/08/24 01:10:51;;;;;;;4.25;2.13;;;;;;;16.60;73.98;98833.72;5005157;28;20136;-68
2022/08/24 01:13:17;;;;;;;4.53;2.00;;;;;;;16.52;74.11;98836.84;5008953;28;20021;-68
2022/08/24 01:15:46;;;;;;;5.72;2.10;;;;;;;16.50;73.92;98838.16;5006758;28;20105;-68
2022/08/24 01:21:15;;;;;;;3.10;1.60;;;;;;;16.42;75.55;98848.38;5009062;28;20045;-68
2022/08/24 01:23:44;;;;;;;5.82;2.15;;;;;;;16.29;79.05;98843.19;5003321;28;20223;-68
2022/08/24 01:26:17;;;;;;;6.50;2.40;;;;;;;16.00;83.26;98826.69;5008303;28;20026;-68
2022/08/24 01:28:44;;;;;;;2.40;1.95;;;;;;;16.00;83.86;98848.53;5003875;28;20058;-68
2022/08/24 01:31:10;;;;;;;5.75;2.30;;;;;;;15.98;82.97;98856.16;4988973;28;20033;-68
2022/08/24 01:33:36;;;;;;;7.50;2.20;;;;;;;15.76;82.48;98814.16;5008942;28;20026;-68
2022/08/24 01:36:17;;;;;;;4.60;1.92;;;;;;;16.02;81.77;98850.22;5005875;28;20511;-68
2022/08/24 01:38:44;;;;;;;3.03;2.05;;;;;;;16.03;79.04;98841.78;5003251;28;20580;-68
2022/08/24 01:41:09;;;;;;;6.10;1.80;;;;;;;16.04;77.81;98845.34;5006918;28;20022;-68
2022/08/24 01:43:35;;;;;;;2.55;1.83;;;;;;;16.04;77.92;98845.34;5008137;28;20434;-68
2022/08/24 01:46:00;;;;;;;2.80;1.65;;;;;;;16.00;76.71;98839.53;5008328;28;20030;-68
2022/08/24 01:48:25;;;;;;;4.00;1.98;;;;;;;15.99;80.74;98848.78;5003457;28;20017;-68
2022/08/24 01:50:51;;;;;;;4.07;2.30;;;;;;;15.96;80.17;98849.28;5012339;28;20030;-68
2022/08/24 01:53:18;;;;;;;4.20;2.10;;;;;;;15.89;80.95;98846.66;5012446;28;20071;-68
2022/08/24 01:55:44;;;;;;;2.22;1.63;;;;;;;15.68;82.39;98822.66;4999251;28;20576;-67
2022/08/24 01:58:09;;;;;;;5.00;2.65;;;;;;;15.85;85.64;98855.53;5027907;22;20026;-60
2022/08/24 02:00:36;;;;;;;3.78;2.10;;;;;;;15.81;84.76;98849.72;5007951;28;20092;-59
2022/08/24 02:03:02;;;;;;;4.60;2.08;;;;;;;15.81;83.41;98848.91;5013510;28;20034;-59
2022/08/24 02:05:28;;;;;;;5.65;2.30;;;;;;;15.78;83.68;98850.22;5012113;28;20084;-59
2022/08/24 02:07:56;;;;;;;2.55;1.90;;;;;;;15.66;84.58;98846.59;5007057;28;20028;-59
2022/08/24 02:10:22;;;;;;;4.23;2.10;;;;;;;15.59;85.49;98846.72;4998601;28;20112;-59
2022/08/24 02:12:58;;;;;;;2.70;1.90;;;;;;;15.60;85.23;98847.53;5022043;28;20362;-59
2022/08/24 02:15:38;;;;;;;2.22;1.73;;;;;;;15.52;85.04;98855.00;5013910;28;20037;-59
2022/08/24 02:18:05;;;;;;;5.70;2.10;;;;;;;15.51;85.59;98855.22;5024175;28;20042;-59
2022/08/24 02:20:30;;;;;;;3.63;1.95;;;;;;;15.26;84.97;98822.69;5019111;28;20080;-59
2022/08/24 02:22:56;;;;;;;5.13;1.98;;;;;;;15.41;86.47;98864.00;5021849;28;20071;-59
2022/08/24 02:25:23;;;;;;;2.78;1.73;;;;;;;15.38;85.33;98860.88;5014420;28;20021;-60
2022/08/24 02:27:49;;;;;;;3.92;2.13;;;;;;;15.44;85.41;98859.97;5012218;28;20030;-59
2022/08/24 02:30:16;;;;;;;3.83;1.70;;;;;;;15.35;86.13;98856.72;5020714;28;20034;-59
2022/08/24 02:32:42;;;;;;;3.47;1.70;;;;;;;15.32;86.29;98865.38;5020346;28;20026;-59
2022/08/24 02:35:09;;;;;;;3.35;1.60;;;;;;;15.37;86.35;98868.22;5018645;28;20176;-59
2022/08/24 02:37:34;;;;;;;3.85;1.90;;;;;;;15.33;88.43;98869.78;5013323;28;20022;-59
2022/08/24 02:40:00;;;;;;;3.90;2.15;;;;;;;15.37;91.99;98868.22;5015170;28;20504;-59
2022/08/24 02:42:26;;;;;;;3.53;2.28;;;;;;;15.38;91.56;98863.59;5024004;28;20128;-59
2022/08/24 02:44:52;;;;;;;3.95;2.40;;;;;;;15.33;93.67;98865.16;5020534;28;20030;-59
2022/08/24 02:47:17;;;;;;;4.63;2.60;;;;;;;15.28;94.51;98869.66;5009323;28;20029;-60
2022/08/24 02:49:43;;;;;;;3.95;2.63;;;;;;;15.22;94.56;98860.50;5022743;28;20120;-59
2022/08/24 02:52:09;;;;;;;2.47;2.28;;;;;;;15.24;94.20;98857.53;5016881;28;20033;-59
2022/08/24 02:54:34;;;;;;;2.53;2.13;;;;;;;15.17;93.86;98862.22;5014144;28;20393;-59
2022/08/24 02:57:00;;;;;;;3.45;2.22;;;;;;;15.13;92.07;98853.69;5014769;28;20021;-59
2022/08/24 02:59:25;;;;;;;6.60;2.85;;;;;;;15.17;94.44;98846.75;5022277;28;20065;-59
2022/08/24 03:01:51;;;;;;;3.63;2.67;;;;;;;15.10;94.86;98855.00;5038226;28;20110;-59
2022/08/24 03:04:17;;;;;;;3.92;2.47;;;;;;;15.04;97.35;98855.09;5016337;28;20389;-59
2022/08/24 03:06:42;;;;;;;5.15;2.55;;;;;;;15.00;99.77;98852.00;5006867;28;20029;-59
2022/08/24 03:09:08;;;;;;;4.97;2.63;;;;;;;14.93;100.00;98856.69;5021003;28;20072;-59
2022/08/24 03:11:33;;;;;;;7.88;2.95;;;;;;;14.90;100.00;98865.34;5015726;28;20457;-59
2022/08/24 03:13:59;;;;;;;4.90;2.65;;;;;;;14.85;100.00;98857.84;5019072;28;20037;-62
2022/08/24 03:16:26;;;;;;;4.15;2.70;;;;;;;14.81;100.00;98843.03;5011713;28;20052;-59
2022/08/24 03:18:51;;;;;;;5.78;2.95;;;;;;;14.77;100.00;98860.06;5007374;28;20745;-59
2022/08/24 03:21:17;;;;;;;4.82;2.95;;;;;;;14.78;100.00;98850.84;5016776;28;20033;-59
2022/08/24 03:23:42;;;;;;;5.57;2.70;;;;;;;14.78;100.00;98848.94;5012095;28;20022;-59
2022/08/24 03:26:08;;;;;;;4.13;2.40;;;;;;;14.71;100.00;98845.47;5014691;28;20029;-59
2022/08/24 03:28:33;;;;;;;8.52;2.70;;;;;;;14.68;100.00;98851.38;5012405;28;20061;-59
2022/08/24 03:31:02;;;;;;;5.35;2.53;;;;;;;14.62;100.00;98852.31;5017866;28;20037;-68
2022/08/24 03:33:27;;;;;;;4.38;2.67;;;;;;;14.62;100.00;98846.84;5013279;28;20018;-63
2022/08/24 03:35:54;;;;;;;6.88;2.90;;;;;;;14.63;100.00;98848.50;5018877;28;20413;-59
2022/08/24 03:38:20;;;;;;;7.00;2.92;;;;;;;14.62;100.00;98842.25;5026161;28;20026;-59
2022/08/24 03:40:45;;;;;;;3.38;2.65;;;;;;;14.58;100.00;98843.75;5014439;28;20029;-60
2022/08/24 03:43:44;;;;;;;4.10;2.70;;;;;;;14.57;100.00;98844.81;5015765;28;20099;-59
2022/08/24 03:45:56;;;;;;;5.25;2.83;;;;;;;14.59;100.00;98847.28;5010620;28;20041;-59
2022/08/24 03:48:23;;;;;;;3.65;2.70;;;;;;;14.64;100.00;98844.72;5011279;28;20022;-63
2022/08/24 03:50:48;;;;;;;3.58;2.72;;;;;;;14.60;100.00;98843.53;5012735;28;20030;-59
2022/08/24 03:53:14;;;;;;;6.13;2.58;;;;;;;14.63;100.00;98843.88;5018281;28;20437;-59
2022/08/24 03:55:40;;;;;;;6.63;2.85;;;;;;;14.60;100.00;98849.78;5019910;28;20407;-59
2022/08/24 03:58:05;;;;;;;5.53;3.03;;;;;;;14.57;100.00;98846.72;5018178;28;20025;-59
2022/08/24 04:00:30;;;;;;;4.75;2.85;;;;;;;14.52;100.00;98858.25;5003934;28;20038;-60
2022/08/24 04:02:56;;;;;;;4.45;3.10;;;;;;;14.46;100.00;98860.00;5007371;28;20040;-60
2022/08/24 04:05:21;;;;;;;6.32;3.10;;;;;;;14.38;100.00;98854.00;5016961;28;20087;-59
2022/08/24 04:07:47;;;;;;;6.82;3.03;;;;;;;14.38;100.00;98854.84;5003315;28;20028;-59
2022/08/24 04:10:13;;;;;;;4.13;2.33;;;;;;;14.29;100.00;98860.81;5013389;28;20037;-59
2022/08/24 04:12:39;;;;;;;5.10;2.67;;;;;;;14.19;100.00;98856.72;5011837;28;20041;-59
2022/08/24 04:15:05;;;;;;;10.25;2.95;;;;;;;14.14;100.00;98855.72;5012020;28;20055;-58
2022/08/24 04:17:31;;;;;;;4.55;3.17;;;;;;;14.03;100.00;98860.03;5011068;28;20092;-57
2022/08/24 04:19:56;;;;;;;4.55;2.85;;;;;;;14.06;100.00;98859.56;5009482;28;20041;-58
2022/08/24 04:22:26;;;;;;;6.13;2.97;;;;;;;14.12;100.00;98866.84;5019189;28;20029;-58
2022/08/24 04:24:53;;;;;;;4.68;3.00;;;;;;;14.05;100.00;98866.06;5011857;28;20025;-58
2022/08/24 04:27:19;;;;;;;5.90;2.80;;;;;;;14.06;100.00;98869.63;5019032;28;20040;-58
2022/08/24 04:29:45;;;;;;;5.78;2.53;;;;;;;14.05;100.00;98871.53;5008120;28;20030;-58
2022/08/24 04:32:10;;;;;;;3.92;2.92;;;;;;;14.09;100.00;98875.44;5022459;28;20480;-59
2022/08/24 04:34:36;;;;;;;5.78;3.20;;;;;;;14.12;100.00;98877.75;5014927;28;20489;-58
2022/08/24 04:37:01;;;;;;;3.60;2.80;;;;;;;14.13;100.00;98882.09;5018347;28;20037;-58
2022/08/24 04:39:26;;;;;;;5.00;2.88;;;;;;;14.12;100.00;98874.16;5002673;28;20076;-58
2022/08/24 04:41:52;;;;;;;5.60;3.38;;;;;;;14.13;100.00;98879.38;5019461;28;20435;-58
2022/08/24 04:44:18;;;;;;;5.70;3.05;;;;;;;14.22;100.00;98886.19;5020666;28;20045;-59
2022/08/24 04:46:43;;;;;;;4.05;2.72;;;;;;;14.28;100.00;98883.63;5023247;28;20026;-58
2022/08/24 04:49:09;;;;;;;6.25;3.08;;;;;;;14.27;100.00;98888.25;5018036;28;20026;-58
2022/08/24 04:51:35;;;;;;;4.47;3.00;;;;;;;14.37;100.00;98895.91;5019788;28;20116;-59
2022/08/24 04:54:00;;;;;;;3.95;2.92;;;;;;;14.50;100.00;98895.75;5002428;28;20160;-59
2022/08/24 04:56:26;;;;;;;8.38;3.55;;;;;;;14.57;100.00;98887.56;5019730;28;20058;-58
2022/08/24 04:58:54;;;;;;;6.38;3.03;;;;;;;14.60;100.00;98898.81;5004265;28;20493;-58
2022/08/24 05:01:22;;;;;;;4.75;2.97;;;;;;;14.64;100.00;98904.63;5009513;28;20594;-57
2022/08/24 05:03:49;;;;;;;3.88;2.75;;;;;;;14.69;100.00;98904.78;5012542;28;20064;-58
2022/08/24 05:06:17;;;;;;;5.43;2.80;;;;;;;14.75;100.00;98909.34;5022889;28;20069;-58
2022/08/24 05:08:45;;;;;;;4.75;2.78;;;;;;;14.87;100.00;98901.22;5007192;28;20022;-61
2022/08/24 05:11:12;;;;;;;8.57;3.15;;;;;;;15.12;100.00;98918.28;5017499;28;20478;-59
2022/08/24 05:13:37;;;;;;;5.13;3.20;;;;;;;15.19;98.50;98909.16;5007605;28;20072;-58
2022/08/24 05:16:09;;;;;;;7.75;3.30;;;;;;;15.30;96.86;98908.38;5004845;28;20053;-57
2022/08/24 05:18:34;;;;;;;4.53;2.97;;;;;;;15.42;95.52;98917.44;5028340;28;20021;-57
2022/08/24 05:21:00;;;;;;;4.68;3.30;;;;;;;15.49;94.72;98915.44;5015965;28;20038;-58
2022/08/24 05:23:25;;;;;;;5.07;3.25;;;;;;;15.65;93.27;98913.13;5022391;28;20087;-58
2022/08/24 05:25:51;;;;;;;4.65;2.97;;;;;;;15.74;92.66;98917.19;5018232;28;20388;-57
2022/08/24 05:28:17;;;;;;;3.42;2.63;;;;;;;15.85;90.96;98913.69;5017585;28;20036;-58
2022/08/24 05:30:42;;;;;;;4.47;3.13;;;;;;;16.05;88.86;98912.50;5016565;28;20025;-58
2022/08/24 05:33:08;;;;;;;5.13;3.25;;;;;;;16.11;87.22;98908.81;5013697;28;20029;-58
2022/08/24 05:35:38;;;;;;;4.60;3.42;;;;;;;16.32;85.30;98907.41;5016342;28;20030;-58
2022/08/24 05:38:03;;;;;;;5.10;3.10;;;;;;;16.51;83.14;98903.47;5019991;28;20622;-58
2022/08/24 05:40:29;;;;;;;6.55;2.85;;;;;;;16.70;80.81;98904.16;5023494;28;20082;-58
2022/08/24 05:42:54;;;;;;;7.88;3.10;;;;;;;17.00;77.63;98900.41;5021735;28;20022;-58
2022/08/24 05:45:20;;;;;;;4.00;3.08;;;;;;;17.35;75.05;98910.41;5013532;28;20172;-57
2022/08/24 05:47:45;;;;;;;7.53;2.65;;;;;;;17.58;70.81;98907.53;5016587;28;20544;-57
2022/08/24 05:50:11;;;;;;;6.15;2.65;;;;;;;17.63;70.28;98907.63;5019710;28;20073;-58
2022/08/24 05:52:36;;;;;;;4.65;2.55;;;;;;;17.86;70.65;98917.63;5020087;28;21332;-57
2022/08/24 05:55:03;;;;;;;3.55;2.70;;;;;;;18.45;65.28;98911.72;5016340;28;20045;-57
2022/08/24 05:57:33;;;;;;;3.65;2.50;;;;;;;19.20;62.85;98912.97;5005879;28;20026;-58
2022/08/24 06:00:00;;;;;;;2.92;2.40;;;;;;;20.64;57.20;98914.22;5017510;28;20037;-60
2022/08/24 06:02:25;;;;;;;5.90;2.60;;;;;;;22.05;52.56;98903.88;5010548;28;20021;-60
2022/08/24 06:04:51;;;;;;;4.72;2.58;;;;;;;23.46;48.97;98913.16;5014091;28;20107;-60
2022/08/24 06:07:17;;;;;;;2.83;1.98;;;;;;;24.84;45.14;98913.97;5015956;28;20386;-59
2022/08/24 06:09:43;;;;;;;3.35;2.50;;;;;;;25.41;43.95;98919.63;5012998;28;20025;-60
2022/08/24 06:12:10;;;;;;;3.72;2.38;;;;;;;25.90;42.43;98918.38;5020995;28;20025;-60
2022/08/24 06:14:37;;;;;;;7.63;2.63;;;;;;;26.90;40.69;98916.03;4997762;28;20037;-60
2022/08/24 06:17:04;;;;;;;4.70;2.50;;;;;;;27.38;39.68;98914.78;5019869;28;20022;-60
2022/08/24 06:19:31;;;;;;;2.63;2.10;;;;;;;27.32;39.74;98914.91;5015828;28;20064;-60
2022/08/24 06:21:57;;;;;;;6.13;2.58;;;;;;;27.63;39.49;98914.22;5017423;28;20033;-60
2022/08/24 06:27:20;;;;;;;4.78;2.40;;;;;;;28.59;37.61;98913.00;5017556;28;20034;-61
2022/08/24 06:27:22;;;;;;;6.75;2.83;;;;;;;28.88;36.68;98903.28;5007060;28;20620;-60
2022/08/24 06:29:49;;;;;;;;;;;;;;;29.72;34.99;98911.72;5001892;28;20052;-61
2022/08/24 06:32:14;;;;;;;7.25;2.30;;;;;;;30.38;33.67;98917.09;5018958;28;19965;-61
2022/08/24 06:34:40;;;;;;;5.63;2.55;;;;;;;30.21;34.50;98915.09;5004954;28;20421;-60
2022/08/24 06:37:08;;;;;;;5.28;2.60;;;;;;;29.07;35.90;98924.53;5012286;28;20022;-60
2022/08/24 06:39:34;;;;;;;6.00;2.35;;;;;;;28.89;35.51;98927.19;5007139;28;20334;-61
2022/08/24 06:41:59;;;;;;;5.93;2.40;;;;;;;29.31;35.32;98908.19;5014399;28;20068;-59
2022/08/24 06:44:24;;;;;;;6.18;2.42;;;;;;;30.28;35.16;98921.84;5014927;28;20384;-59
2022/08/24 06:46:51;;;;;;;2.90;2.20;;;;;;;30.67;33.57;98917.16;5010850;28;20053;-58
2022/08/24 06:49:17;;;;;;;3.42;2.03;;;;;;;32.02;32.03;98923.00;5016301;28;20037;-60
2022/08/24 06:51:43;;;;;;;4.72;2.20;;;;;;;32.57;30.15;98923.75;5012660;28;20554;-60
2022/08/24 06:54:09;;;;;;;4.15;2.00;;;;;;;33.59;29.51;98924.78;5018111;28;20117;-60
2022/08/24 06:56:36;;;;;;;4.07;1.85;;;;;;;33.60;29.42;98923.59;5018562;28;20033;-58
2022/08/24 06:59:03;;;;;;;5.57;2.10;;;;;;;34.60;27.95;98920.06;5007479;28;20697;-58
2022/08/24 07:01:30;;;;;;;3.25;2.00;;;;;;;35.43;26.99;98920.16;5018766;28;20057;-60
2022/08/24 07:03:55;;;;;;;5.88;2.03;;;;;;;36.41;26.28;98925.47;5015447;28;20112;-60
2022/08/24 07:06:23;;;;;;;4.32;2.08;;;;;;;35.88;26.43;98930.81;5012923;28;20112;-60
2022/08/24 07:08:50;;;;;;;5.78;1.85;;;;;;;36.27;25.98;98933.66;5010632;28;20038;-60
2022/08/24 07:11:17;;;;;;;3.42;1.88;;;;;;;36.38;25.85;98936.69;5019169;28;20021;-60
2022/08/24 07:13:46;;;;;;;5.50;1.90;;;;;;;36.20;25.43;98930.69;5007318;28;20503;-60
2022/08/24 07:16:13;;;;;;;3.97;1.88;;;;;;;35.83;26.15;98933.94;5011580;28;20034;-59
2022/08/24 07:18:39;;;;;;;3.42;1.80;;;;;;;36.59;25.20;98936.31;5012620;28;20497;-60
2022/08/24 07:21:04;;;;;;;4.30;1.50;;;;;;;36.82;24.72;98930.69;5027289;28;20116;-60
2022/08/24 07:23:30;;;;;;;2.85;1.50;;;;;;;38.35;22.58;98925.66;5013953;28;20034;-60
2022/08/24 07:25:56;;;;;;;1.85;1.30;;;;;;;38.65;23.05;98936.94;5007473;28;20114;-61
2022/08/24 07:28:22;;;;;;;2.65;1.35;;;;;;;39.21;22.38;98933.00;5010475;28;20439;-60
2022/08/24 07:30:47;;;;;;;4.95;1.27;;;;;;;37.88;22.77;98944.03;5014926;28;20458;-60
2022/08/24 07:33:13;;;;;;;3.90;1.77;;;;;;;36.31;24.62;98939.38;5020215;28;20068;-61
2022/08/24 07:35:39;;;;;;;5.75;2.03;;;;;;;36.42;24.96;98938.41;5005719;28;20492;-60
2022/08/24 07:38:06;;;;;;;5.30;1.40;;;;;;;36.86;24.95;98942.81;5011381;28;20013;-61
2022/08/24 07:40:33;;;;;;;9.65;1.95;;;;;;;36.56;24.97;98943.50;5006648;28;20030;-61
2022/08/24 07:42:58;;;;;;;6.35;1.70;;;;;;;36.70;25.19;98936.50;5014850;28;20045;-61
2022/08/24 07:45:26;;;;;;;4.50;1.30;;;;;;;36.57;25.32;98933.03;5014114;28;20029;-61
2022/08/24 07:47:52;;;;;;;3.33;1.37;;;;;;;36.52;25.32;98933.31;5007905;28;20041;-60
2022/08/24 07:50:18;;;;;;;5.47;1.50;;;;;;;35.97;25.97;98939.03;5010945;28;20030;-59
2022/08/24 07:52:44;;;;;;;9.40;1.45;;;;;;;36.07;25.90;98940.50;5003592;28;20026;-61
2022/08/24 07:55:11;;;;;;;5.88;1.40;;;;;;;35.44;26.21;98904.88;5009972;28;20033;-61
2022/08/24 07:57:38;;;;;;;8.13;1.50;;;;;;;35.71;26.44;98939.69;5003413;28;20023;-61
2022/08/24 08:00:06;;;;;;;4.60;1.40;;;;;;;35.75;26.66;98941.41;5006294;28;20080;-60
2022/08/24 08:02:32;;;;;;;5.10;1.10;;;;;;;37.43;24.71;98948.63;5013211;28;20025;-59
2022/08/24 08:04:58;;;;;;;5.38;1.20;;;;;;;37.73;24.09;98948.69;5013506;28;20132;-59
2022/08/24 08:07:23;;;;;;;2.83;1.10;;;;;;;38.19;23.74;98942.84;5013907;28;20470;-60
2022/08/24 08:09:48;;;;;;;4.18;1.20;;;;;;;37.67;24.18;98939.72;5016893;28;20032;-61
2022/08/24 08:12:15;;;;;;;2.97;1.20;;;;;;;36.43;24.98;98947.66;5012740;28;20022;-60
2022/08/24 08:14:40;;;;;;;2.00;1.38;;;;;;;35.73;26.07;98940.13;5019748;28;20155;-60
2022/08/24 08:17:07;;;;;;;2.22;1.30;;;;;;;36.12;25.59;98940.19;5024144;28;20549;-62
2022/08/24 08:19:33;;;;;;;4.10;1.10;;;;;;;37.49;24.86;98945.09;5009567;28;20034;-63
2022/08/24 08:24:44;;;;;;;5.97;1.38;;;;;;;39.05;23.17;98940.94;5009770;28;20060;-63
2022/08/24 08:27:11;;;;;;;3.85;1.27;;;;;;;39.01;22.68;98937.28;5016049;28;20049;-64
2022/08/24 08:29:39;;;;;;;3.53;0.90;;;;;;;39.58;22.37;98936.91;5024167;28;20435;-64
2022/08/24 08:32:06;;;;;;;2.28;1.10;;;;;;;40.05;22.52;98926.66;5005441;28;20030;-64
2022/08/24 08:34:32;;;;;;;1.95;1.13;;;;;;;40.05;22.37;98932.31;5010299;28;20045;-64
2022/08/24 08:36:58;;;;;;;3.58;1.17;;;;;;;39.85;22.55;98920.47;5014787;28;20026;-62
2022/08/24 08:39:25;;;;;;;3.53;1.30;;;;;;;38.56;23.70;98925.91;5022464;28;20057;-64
2022/08/24 08:42:28;;;;;;;2.95;1.13;;;;;;;37.93;24.68;98923.94;5018911;28;20399;-64
2022/08/24 08:45:11;;;;;;;2.22;1.10;;;;;;;39.42;23.04;98912.53;5014449;28;20029;-63
2022/08/24 08:48:09;;;;;;;2.22;1.40;;;;;;;39.34;23.39;98919.38;5011292;28;20187;-63
2022/08/24 08:50:50;;;;;;;5.93;1.45;;;;;;;39.75;22.66;98919.22;5013189;28;20115;-62
2022/08/24 08:53:54;;;;;;;2.75;1.30;;;;;;;39.50;23.26;98912.59;5022902;28;20053;-63
2022/08/24 08:56:41;;;;;;;2.08;1.40;;;;;;;41.33;21.91;98919.59;4950213;28;20034;-63
2022/08/24 08:59:27;;;;;;;3.03;1.08;;;;;;;41.13;21.90;98920.00;5017947;28;20042;-62
2022/08/24 09:02:17;;;;;;;2.83;1.00;;;;;;;41.25;21.59;98915.16;5009734;28;20037;-62
2022/08/24 09:05:21;;;;;;;1.10;1.00;;;;;;;42.63;20.29;98915.03;5022291;28;20548;-62
2022/08/24 09:07:46;;;;;;;1.88;1.20;;;;;;;41.18;21.54;98913.91;5003303;28;20096;-63
2022/08/24 09:10:39;;;;;;;1.30;0.85;;;;;;;40.91;21.08;98915.53;5021100;28;20021;-63
2022/08/24 09:13:42;;;;;;;2.25;1.10;;;;;;;39.70;22.58;98908.25;5013630;28;20026;-62
2022/08/24 09:16:11;;;;;;;2.50;0.98;;;;;;;39.75;22.66;98907.03;5014808;28;20060;-63
2022/08/24 09:19:02;;;;;;;4.45;0.95;;;;;;;38.93;23.48;98901.63;5010985;28;20128;-63
2022/08/24 09:21:49;;;;;;;1.35;0.95;;;;;;;39.22;23.26;98899.84;5003305;28;20034;-63
2022/08/24 09:24:30;;;;;;;1.65;1.00;;;;;;;39.95;22.40;98887.75;5003960;28;20117;-63
2022/08/24 09:27:17;;;;;;;2.67;0.93;;;;;;;39.64;22.21;98893.66;5008536;28;20026;-63
2022/08/24 09:30:07;;;;;;;2.40;1.00;;;;;;;40.91;20.97;98898.53;5001489;28;20030;-62
2022/08/24 09:32:35;;;;;;;1.77;0.90;;;;;;;40.86;21.12;98896.09;5004891;28;20043;-61
2022/08/24 09:35:08;;;;;;;0.85;0.70;;;;;;;41.02;21.26;98895.66;5004601;28;20080;-61
2022/08/24 09:37:33;;;;;;;2.45;0.80;;;;;;;40.25;21.08;98899.63;5016570;28;20429;-61
2022/08/24 09:40:35;;;;;;;2.75;0.85;;;;;;;40.39;21.27;98889.53;5006639;28;20038;-61
2022/08/24 09:43:39;;;;;;;1.55;1.00;;;;;;;40.00;21.28;98879.66;5006096;28;20429;-61
2022/08/24 09:46:12;;;;;;;2.65;0.90;;;;;;;40.47;21.58;98891.16;5026333;23;20056;-68
2022/08/24 09:48:46;;;;;;;1.15;0.80;;;;;;;41.42;20.69;98891.56;5004647;28;20506;-70
2022/08/24 09:51:24;;;;;;;0.95;0.80;;;;;;;41.20;20.89;98890.81;4997485;28;20105;-68
2022/08/24 09:54:02;;;;;;;1.30;0.80;;;;;;;42.18;19.73;98889.31;5005553;28;20037;-68
2022/08/24 09:56:45;;;;;;;1.80;0.57;;;;;;;42.19;19.92;98890.94;4981371;28;20660;-68
2022/08/24 09:59:48;;;;;;;2.65;0.95;;;;;;;42.51;18.86;98887.91;4984372;28;20034;-69
2022/08/24 10:02:38;;;;;;;2.28;0.80;;;;;;;41.92;20.12;98888.66;4982125;28;20027;-68
2022/08/24 10:05:27;;;;;;;0.82;0.60;;;;;;;41.00;19.15;98892.44;4979966;28;20037;-68
2022/08/24 10:08:02;;;;;;;1.25;0.70;;;;;;;40.14;20.18;98883.75;4974896;28;20023;-68
2022/08/24 10:10:31;;;;;;;0.75;0.60;;;;;;;40.43;19.42;98878.97;4984828;28;20177;-68
2022/08/24 10:13:06;;;;;;;4.72;0.68;;;;;;;40.96;19.06;98883.91;4984778;28;20030;-68
2022/08/24 10:16:06;;;;;;;3.15;0.60;;;;;;;40.58;18.95;98877.78;4983856;28;20113;-69
2022/08/24 10:18:44;;;;;;;0.85;0.65;;;;;;;40.18;19.41;98868.38;4982527;28;20041;-68
2022/08/24 10:21:43;;;;;;;2.40;0.88;;;;;;;40.48;19.04;98876.59;4984495;28;20034;-68
2022/08/24 10:24:54;;;;;;;0.73;0.70;;;;;;;40.15;19.59;98874.88;4965837;28;20034;-69
2022/08/24 10:27:38;;;;;;;1.00;0.63;;;;;;;40.11;18.76;98876.88;4974082;28;20042;-68
2022/08/24 10:30:41;;;;;;;1.80;0.75;;;;;;;41.30;18.70;98869.31;4983317;28;20046;-68
2022/08/24 10:33:27;;;;;;;1.00;0.80;;;;;;;40.52;18.95;98871.72;4979325;28;20079;-68
2022/08/24 10:36:11;;;;;;;0.90;0.70;;;;;;;40.18;19.20;98859.88;4982842;28;20104;-69
2022/08/24 10:41:47;;;;;;;0.90;0.70;;;;;;;40.11;20.49;98854.19;4985257;28;20033;-70
2022/08/24 10:44:30;;;;;;;1.33;0.80;;;;;;;40.78;19.71;98857.59;4986692;28;20030;-71
2022/08/24 10:47:05;;;;;;;1.42;0.80;;;;;;;40.61;19.56;98857.16;4983218;28;20065;-70
2022/08/24 10:49:33;;;;;;;1.92;0.77;;;;;;;41.75;18.50;98846.88;4985421;28;20425;-71
2022/08/24 10:52:29;;;;;;;1.92;0.85;;;;;;;40.50;19.84;98856.31;4981560;28;20030;-70
2022/08/24 10:54:54;;;;;;;1.48;0.95;;;;;;;39.99;20.48;98838.38;4981315;28;20534;-71
2022/08/24 10:57:34;;;;;;;1.67;1.00;;;;;;;39.11;21.44;98831.03;4985673;28;20035;-71
2022/08/24 11:00:13;;;;;;;2.17;0.73;;;;;;;40.37;20.13;98846.59;4982659;28;20129;-71
2022/08/24 11:02:41;;;;;;;1.75;0.95;;;;;;;40.71;20.11;98845.00;4985808;28;20195;-73
2022/08/24 11:05:34;;;;;;;0.90;0.70;;;;;;;41.68;19.38;98839.16;4983475;28;20121;-69
2022/08/24 11:08:06;;;;;;;2.92;0.77;;;;;;;41.67;18.99;98840.41;4973970;28;20440;-68
2022/08/24 11:10:35;;;;;;;2.10;0.90;;;;;;;42.68;18.88;98840.63;4984222;28;20057;-69
2022/08/24 11:13:16;;;;;;;3.22;0.93;;;;;;;41.30;19.20;98846.59;4976900;28;20026;-69
2022/08/24 11:15:58;;;;;;;3.88;1.00;;;;;;;41.27;19.88;98851.06;4982919;28;20026;-69
2022/08/24 11:18:25;;;;;;;2.22;0.70;;;;;;;40.66;19.85;98858.78;4986403;28;20030;-69
2022/08/24 11:20:54;;;;;;;0.82;0.70;;;;;;;41.38;18.85;98846.16;4985009;28;20030;-69
2022/08/24 11:23:27;;;;;;;2.00;0.90;;;;;;;41.37;18.80;98843.72;4981233;28;20045;-68
2022/08/24 11:26:07;;;;;;;0.93;0.70;;;;;;;41.78;18.05;98837.50;4984329;28;20045;-69
2022/08/24 11:28:59;;;;;;;2.28;0.82;;;;;;;41.40;18.75;98820.19;4982655;28;20036;-71
2022/08/24 11:31:39;;;;;;;4.80;1.20;;;;;;;41.78;19.07;98820.47;4981058;28;20046;-71
2022/08/24 11:34:33;;;;;;;2.75;0.80;;;;;;;41.83;18.07;98831.41;4982591;28;20034;-74
2022/08/24 11:36:58;;;;;;;0.93;0.70;;;;;;;42.38;18.03;98832.75;4979599;28;20136;-72
2022/08/24 11:39:33;;;;;;;1.77;0.85;;;;;;;42.90;17.88;98833.56;4983928;28;20479;-70
2022/08/24 11:42:01;;;;;;;1.35;0.80;;;;;;;42.66;18.01;98828.88;4963452;28;20030;-72
2022/08/24 11:45:09;;;;;;;0.75;0.70;;;;;;;41.97;18.47;98833.38;4987624;28;20034;-70
2022/08/24 11:48:05;;;;;;;1.60;0.80;;;;;;;42.60;17.68;98825.66;4949516;28;20090;-74
2022/08/24 11:50:45;;;;;;;3.35;0.60;;;;;;;41.77;18.55;98824.53;4978064;28;20031;-71
2022/08/24 11:53:25;;;;;;;0.93;0.63;;;;;;;42.59;17.57;98826.88;4987381;28;20384;-71
2022/08/24 11:56:38;;;;;;;3.05;0.98;;;;;;;41.38;18.63;98816.97;4987662;28;20587;-71
2022/08/24 11:59:35;;;;;;;1.23;0.70;;;;;;;42.01;18.68;98825.66;4924082;29;20056;-73